createdAt,value
2018-04-18T00:03:00.447Z,101311.65
2018-04-18T00:06:01.924Z,101319.44
2018-04-18T00:09:03.257Z,101317.37
2018-04-18T00:12:05.287Z,101327.12
2018-04-18T00:15:06.620Z,101327.44
2018-04-18T00:18:07.932Z,101322.81
2018-04-18T00:21:09.272Z,101322.78
2018-04-18T00:24:10.618Z,101327.96
2018-04-18T00:27:11.978Z,101321.24
2018-04-18T00:30:13.245Z,101317.87
2018-04-18T00:33:14.533Z,101325.56
2018-04-18T00:36:15.835Z,101319.41
2018-04-18T00:39:17.106Z,101328.05
2018-04-18T00:42:19.131Z,101328.50
2018-04-18T00:45:20.414Z,101333.80
2018-04-18T00:48:21.875Z,101332.55
2018-04-18T00:51:23.156Z,101332.50
2018-04-18T00:54:31.623Z,101319.87
2018-04-18T00:57:34.042Z,101321.94
2018-04-18T01:00:35.505Z,101333.90
2018-04-18T01:03:36.821Z,101337.31
2018-04-18T01:06:38.165Z,101337.20
2018-04-18T01:09:40.237Z,101346.50
2018-04-18T01:12:41.837Z,101336.39
2018-04-18T01:15:43.149Z,101338.39
2018-04-18T01:18:44.469Z,101339.55
2018-04-18T01:21:45.758Z,101340.62
2018-04-18T01:24:47.791Z,101342.78
2018-04-18T01:27:49.077Z,101342.84
2018-04-18T01:30:50.365Z,101347.19
2018-04-18T01:33:52.378Z,101338.00
2018-04-18T01:36:53.666Z,101336.33
2018-04-18T01:39:54.925Z,101347.90
2018-04-18T01:42:56.218Z,101348.27
2018-04-18T01:45:57.482Z,101354.77
2018-04-18T01:49:17.194Z,101350.92
2018-04-18T01:52:19.224Z,101359.36
2018-04-18T01:55:20.490Z,101364.04
2018-04-18T01:58:21.769Z,101360.13
2018-04-18T02:04:31.988Z,101360.14
2018-04-18T02:07:33.477Z,101374.75
2018-04-18T02:10:35.585Z,101375.12
2018-04-18T02:13:36.858Z,101375.71
2018-04-18T02:16:38.142Z,101379.11
2018-04-18T02:19:39.429Z,101382.05
2018-04-18T02:22:40.707Z,101390.94
2018-04-18T02:25:41.978Z,101385.38
2018-04-18T02:28:43.282Z,101398.68
2018-04-18T02:31:44.632Z,101390.36
2018-04-18T02:34:45.878Z,101406.24
2018-04-18T02:37:47.873Z,101392.89
2018-04-18T02:40:49.130Z,101391.66
2018-04-18T02:43:51.154Z,101400.17
2018-04-18T02:46:52.427Z,101395.34
2018-04-18T02:49:53.688Z,101404.69
2018-04-18T02:52:55.050Z,101388.57
2018-04-18T02:55:56.357Z,101402.15
2018-04-18T02:58:58.384Z,101413.17
2018-04-18T03:01:59.731Z,101413.99
2018-04-18T03:05:01.085Z,101415.58
2018-04-18T03:08:02.406Z,101416.44
2018-04-18T03:11:03.733Z,101417.99
2018-04-18T03:14:05.037Z,101427.77
2018-04-18T03:17:06.324Z,101432.05
2018-04-18T03:20:08.365Z,101428.56
2018-04-18T03:23:10.376Z,101435.51
2018-04-18T03:26:11.654Z,101434.89
2018-04-18T03:29:13.654Z,101437.33
2018-04-18T03:32:14.939Z,101435.36
2018-04-18T03:35:16.179Z,101439.55
2018-04-18T03:38:17.454Z,101440.27
2018-04-18T03:41:18.726Z,101453.42
2018-04-18T03:44:19.994Z,101451.78
2018-04-18T03:47:21.246Z,101455.16
2018-04-18T03:50:22.498Z,101454.45
2018-04-18T03:53:23.720Z,101453.34
2018-04-18T03:56:24.999Z,101462.19
2018-04-18T03:59:26.976Z,101472.02
2018-04-18T04:02:28.274Z,101467.23
2018-04-18T04:05:29.518Z,101442.13
2018-04-18T04:08:31.629Z,101464.66
2018-04-18T04:11:32.978Z,101469.23
2018-04-18T04:14:34.414Z,101470.38
2018-04-18T04:17:55.182Z,101479.62
2018-04-18T04:21:14.997Z,101466.38
2018-04-18T04:24:44.628Z,101473.23
2018-04-18T04:27:45.904Z,101485.33
2018-04-18T04:30:47.175Z,101480.95
2018-04-18T04:33:48.652Z,101487.70
2018-04-18T04:36:50.299Z,101492.61
2018-04-18T04:39:52.335Z,101486.70
2018-04-18T04:42:54.551Z,101495.08
2018-04-18T04:45:55.836Z,101498.39
2018-04-18T04:48:57.132Z,101505.27
2018-04-18T04:52:00.338Z,101506.68
2018-04-18T04:55:03.467Z,101515.57
2018-04-18T04:58:04.832Z,101517.33
2018-04-18T05:01:07.043Z,101520.55
2018-04-18T05:04:09.196Z,101516.28
2018-04-18T05:07:13.126Z,101515.98
2018-04-18T05:10:15.257Z,101523.49
2018-04-18T05:13:17.871Z,101525.80
2018-04-18T05:16:19.539Z,101539.55
2018-04-18T05:19:21.988Z,101525.77
2018-04-18T05:22:24.094Z,101532.86
2018-04-18T05:25:26.149Z,101540.95
2018-04-18T05:28:27.419Z,101547.75
2018-04-18T05:31:28.680Z,101557.73
2018-04-18T05:34:30.004Z,101559.88
2018-04-18T05:37:31.359Z,101554.09
2018-04-18T05:40:32.797Z,101557.20
2018-04-18T05:43:34.179Z,101559.98
2018-04-18T05:46:35.557Z,101563.55
2018-04-18T05:49:36.907Z,101569.86
2018-04-18T05:52:38.154Z,101567.60
2018-04-18T05:55:39.417Z,101567.17
2018-04-18T05:58:40.712Z,101578.67
2018-04-18T06:01:42.135Z,101572.52
2018-04-18T06:04:43.436Z,101581.25
2018-04-18T06:07:44.661Z,101583.16
2018-04-18T06:10:45.914Z,101585.25
2018-04-18T06:13:47.220Z,101584.16
2018-04-18T06:16:48.527Z,101583.97
2018-04-18T06:19:50.561Z,101596.77
2018-04-18T06:22:51.846Z,101601.38
2018-04-18T06:25:53.105Z,101600.89
2018-04-18T06:28:54.361Z,101602.13
2018-04-18T06:31:55.651Z,101606.70
2018-04-18T06:34:56.889Z,101601.95
2018-04-18T06:37:58.143Z,101599.20
2018-04-18T06:40:59.482Z,101605.04
2018-04-18T06:44:00.823Z,101614.98
2018-04-18T06:47:02.846Z,101611.02
2018-04-18T06:50:04.267Z,101607.45
2018-04-18T06:53:06.279Z,101607.66
2018-04-18T06:56:08.180Z,101615.51
2018-04-18T06:59:09.618Z,101612.45
2018-04-18T07:02:10.943Z,101614.34
2018-04-18T07:05:12.387Z,101627.50
2018-04-18T07:08:13.693Z,101627.88
2018-04-18T07:11:15.699Z,101635.16
2018-04-18T07:14:17.035Z,101633.77
2018-04-18T07:17:19.013Z,101633.31
2018-04-18T07:20:21.029Z,101630.69
2018-04-18T07:23:22.328Z,101636.78
2018-04-18T07:26:23.701Z,101630.47
2018-04-18T07:29:24.985Z,101630.61
2018-04-18T07:32:26.994Z,101624.33
2018-04-18T07:35:28.272Z,101640.56
2018-04-18T07:38:29.654Z,101637.03
2018-04-18T07:41:30.950Z,101637.46
2018-04-18T07:44:32.454Z,101636.91
2018-04-18T07:47:33.760Z,101640.91
2018-04-18T07:50:35.187Z,101650.62
2018-04-18T07:53:36.530Z,101645.89
2018-04-18T07:56:38.531Z,101650.95
2018-04-18T07:59:39.814Z,101657.94
2018-04-18T08:02:41.186Z,101651.34
2018-04-18T08:05:42.535Z,101649.34
2018-04-18T08:08:43.855Z,101649.23
2018-04-18T08:11:45.154Z,101657.03
2018-04-18T08:14:46.497Z,101651.56
2018-04-18T08:17:48.559Z,101655.35
2018-04-18T08:20:49.855Z,101645.85
2018-04-18T08:23:51.896Z,101659.53
2018-04-18T08:26:53.758Z,101654.45
2018-04-18T08:29:55.092Z,101658.95
2018-04-18T08:32:56.448Z,101655.00
2018-04-18T08:35:57.793Z,101661.66
2018-04-18T08:38:59.898Z,101663.63
2018-04-18T08:42:01.231Z,101657.98
2018-04-18T08:45:02.536Z,101665.56
2018-04-18T08:48:21.241Z,101664.02
2018-04-18T08:51:22.718Z,101653.49
2018-04-18T08:54:24.543Z,101650.27
2018-04-18T08:57:26.000Z,101655.74
2018-04-18T09:00:27.394Z,101648.04
2018-04-18T09:03:28.741Z,101657.16
2018-04-18T09:06:30.120Z,101653.95
2018-04-18T09:09:32.106Z,101656.08
2018-04-18T09:12:33.463Z,101649.78
2018-04-18T09:15:34.838Z,101651.39
2018-04-18T09:22:08.804Z,101651.88
2018-04-18T09:25:10.179Z,101650.51
2018-04-18T09:28:11.560Z,101651.20
2018-04-18T09:31:12.961Z,101648.33
2018-04-18T09:34:15.064Z,101646.19
2018-04-18T09:37:16.461Z,101644.63
2018-04-18T09:40:17.904Z,101642.24
2018-04-18T09:43:19.575Z,101652.72
2018-04-18T09:46:21.144Z,101651.96
2018-04-18T09:49:22.700Z,101653.87
2018-04-18T09:52:24.907Z,101651.05
2018-04-18T09:55:27.115Z,101645.67
2018-04-18T09:58:28.653Z,101645.66
2018-04-18T10:01:36.057Z,101639.30
2018-04-18T10:04:44.146Z,101633.70
2018-04-18T10:07:45.543Z,101643.83
2018-04-18T10:10:47.854Z,101642.95
2018-04-18T10:13:49.416Z,101636.66
2018-04-18T10:16:50.901Z,101640.00
2018-04-18T10:19:52.321Z,101633.17
2018-04-18T10:22:53.790Z,101631.60
2018-04-18T10:25:55.302Z,101635.36
2018-04-18T10:28:56.745Z,101644.20
2018-04-18T10:31:58.222Z,101635.19
2018-04-18T10:34:59.651Z,101627.92
2018-04-18T10:38:01.090Z,101626.55
2018-04-18T10:41:02.511Z,101625.98
2018-04-18T10:44:04.725Z,101629.98
2018-04-18T10:47:06.133Z,101627.17
2018-04-18T10:50:07.578Z,101624.47
2018-04-18T10:53:09.009Z,101626.83
2018-04-18T10:56:10.451Z,101619.47
2018-04-18T10:59:11.845Z,101616.87
2018-04-18T11:02:13.314Z,101615.20
2018-04-18T11:05:14.734Z,101605.91
2018-04-18T11:08:16.191Z,101615.64
2018-04-18T11:14:26.538Z,101613.63
2018-04-18T11:17:28.718Z,101598.12
2018-04-18T11:20:30.891Z,101606.77
2018-04-18T11:23:32.308Z,101610.50
2018-04-18T11:26:33.778Z,101598.63
2018-04-18T11:29:35.277Z,101601.01
2018-04-18T11:32:36.715Z,101584.06
2018-04-18T11:35:38.131Z,101603.61
2018-04-18T11:38:39.550Z,101604.75
2018-04-18T11:41:40.939Z,101594.50
2018-04-18T11:44:42.399Z,101593.37
2018-04-18T11:47:43.822Z,101597.83
2018-04-18T11:50:45.238Z,101589.91
2018-04-18T11:53:46.665Z,101587.28
2018-04-18T11:56:48.071Z,101586.10
2018-04-18T11:59:49.487Z,101573.42
2018-04-18T12:02:51.718Z,101569.27
2018-04-18T12:05:53.156Z,101569.69
2018-04-18T12:08:54.620Z,101568.32
2018-04-18T12:11:56.043Z,101564.98
2018-04-18T12:14:57.474Z,101567.19
2018-04-18T12:17:58.962Z,101565.05
2018-04-18T12:21:01.145Z,101556.62
2018-04-18T12:24:02.569Z,101548.93
2018-04-18T12:27:04.723Z,101561.27
2018-04-18T12:30:06.157Z,101558.27
2018-04-18T12:33:07.579Z,101556.89
2018-04-18T12:36:09.856Z,101548.05
2018-04-18T12:39:11.371Z,101552.46
2018-04-18T12:42:12.797Z,101557.61
2018-04-18T12:45:15.007Z,101557.27
2018-04-18T12:48:16.484Z,101554.84
2018-04-18T12:51:17.916Z,101545.42
2018-04-18T12:54:20.016Z,101546.15
2018-04-18T12:57:21.457Z,101544.34
2018-04-18T13:00:22.856Z,101545.91
2018-04-18T13:03:24.275Z,101535.17
2018-04-18T13:06:25.858Z,101531.59
2018-04-18T13:09:27.280Z,101529.74
2018-04-18T13:12:28.716Z,101518.76
2018-04-18T13:15:30.192Z,101516.11
2018-04-18T13:18:31.664Z,101518.37
2018-04-18T13:21:33.090Z,101527.80
2018-04-18T13:24:34.598Z,101520.97
2018-04-18T13:27:36.026Z,101509.27
2018-04-18T13:30:37.404Z,101505.86
2018-04-18T13:33:39.545Z,101509.89
2018-04-18T13:36:40.976Z,101508.09
2018-04-18T13:39:42.419Z,101504.36
2018-04-18T13:42:44.586Z,101500.38
2018-04-18T13:45:46.053Z,101500.59
2018-04-18T13:48:48.023Z,101498.91
2018-04-18T13:51:49.806Z,101489.82
2018-04-18T13:54:52.477Z,101487.89
2018-04-18T13:57:53.884Z,101491.64
2018-04-18T14:00:55.294Z,101481.38
2018-04-18T14:03:56.697Z,101482.29
2018-04-18T14:06:58.058Z,101478.42
2018-04-18T14:09:59.486Z,101482.06
2018-04-18T14:13:00.922Z,101488.61
2018-04-18T14:16:02.327Z,101480.87
2018-04-18T14:19:03.765Z,101477.47
2018-04-18T14:22:05.907Z,101478.84
2018-04-18T14:25:07.439Z,101473.41
2018-04-18T14:28:08.897Z,101457.11
2018-04-18T14:31:11.147Z,101469.44
2018-04-18T14:34:12.547Z,101466.91
2018-04-18T14:37:14.706Z,101462.47
2018-04-18T14:40:16.173Z,101464.03
2018-04-18T14:43:17.587Z,101452.59
2018-04-18T14:46:18.999Z,101453.25
2018-04-18T14:49:21.107Z,101441.03
2018-04-18T14:52:23.343Z,101442.31
2018-04-18T14:55:24.819Z,101445.63
2018-04-18T14:58:26.293Z,101448.80
2018-04-18T15:01:27.711Z,101446.67
2018-04-18T15:04:29.900Z,101447.52
2018-04-18T15:07:31.379Z,101444.06
2018-04-18T15:10:32.793Z,101439.91
2018-04-18T15:13:34.284Z,101441.11
2018-04-18T15:16:37.524Z,101437.26
2018-04-18T15:19:39.401Z,101430.89
2018-04-18T15:25:49.001Z,101423.78
2018-04-18T15:28:50.535Z,101420.69
2018-04-18T15:31:51.988Z,101419.75
2018-04-18T15:34:53.428Z,101417.89
2018-04-18T15:37:54.920Z,101417.70
2018-04-18T15:40:56.398Z,101421.06
2018-04-18T15:43:57.821Z,101416.31
2018-04-18T15:46:59.311Z,101421.55
2018-04-18T15:50:00.781Z,101413.37
2018-04-18T15:53:02.324Z,101415.87
2018-04-18T15:56:03.835Z,101401.23
2018-04-18T15:59:05.317Z,101414.60
2018-04-18T16:02:06.892Z,101415.19
2018-04-18T16:05:09.114Z,101406.91
2018-04-18T16:08:10.568Z,101405.01
2018-04-18T16:11:12.111Z,101402.05
2018-04-18T16:14:13.551Z,101403.11
2018-04-18T16:17:15.078Z,101407.38
2018-04-18T16:20:16.522Z,101403.95
2018-04-18T16:23:18.774Z,101400.41
2018-04-18T16:26:20.323Z,101405.22
2018-04-18T16:29:40.215Z,101393.66
2018-04-18T16:32:41.754Z,101401.96
2018-04-18T16:35:44.022Z,101397.53
2018-04-18T16:38:45.531Z,101400.83
2018-04-18T16:41:47.109Z,101397.48
2018-04-18T16:44:48.670Z,101393.35
2018-04-18T16:47:50.166Z,101395.94
2018-04-18T16:50:51.674Z,101397.78
2018-04-18T16:53:53.898Z,101393.20
2018-04-18T16:56:55.373Z,101387.25
2018-04-18T16:59:56.845Z,101391.46
2018-04-18T17:02:58.331Z,101391.09
2018-04-18T17:06:00.172Z,101395.64
2018-04-18T17:09:01.695Z,101391.39
2018-04-18T17:12:03.149Z,101388.75
2018-04-18T17:15:04.664Z,101386.65
2018-04-18T17:18:06.884Z,101381.72
2018-04-18T17:21:08.349Z,101386.98
2018-04-18T17:24:10.525Z,101383.77
2018-04-18T17:27:12.064Z,101392.92
2018-04-18T17:30:14.295Z,101395.70
2018-04-18T17:33:15.858Z,101391.92
2018-04-18T17:36:17.406Z,101382.80
2018-04-18T17:39:18.901Z,101389.02
2018-04-18T17:42:34.237Z,101386.06
2018-04-18T17:49:09.203Z,101383.93
2018-04-18T17:52:19.758Z,101389.50
2018-04-18T17:59:16.314Z,101388.19
2018-04-18T20:14:51.851Z,101418.56
2018-04-18T20:18:02.121Z,101415.78
2018-04-18T20:21:03.674Z,101415.30
2018-04-18T20:24:06.424Z,101413.99
2018-04-18T20:27:08.885Z,101425.98
2018-04-18T20:30:11.725Z,101409.36
2018-04-18T20:33:14.132Z,101395.68
2018-04-18T20:36:15.778Z,101416.90
2018-04-18T20:46:55.032Z,101419.19
2018-04-18T20:49:56.741Z,101419.23
2018-04-18T20:53:01.660Z,101415.94
2018-04-18T20:56:03.394Z,101411.66
2018-04-18T20:59:05.783Z,101418.62
2018-04-18T21:02:08.156Z,101418.02
2018-04-18T21:05:38.446Z,101425.84
2018-04-18T21:08:49.227Z,101417.42
2018-04-18T21:12:11.329Z,101418.02
2018-04-18T21:15:13.727Z,101425.66
2018-04-18T21:18:27.513Z,101418.77
2018-04-18T21:21:31.076Z,101424.22
2018-04-18T21:24:32.658Z,101426.94
2018-04-18T21:27:35.876Z,101410.77
2018-04-18T21:30:38.191Z,101425.04
2018-04-18T21:33:41.546Z,101424.03
2018-04-18T21:36:43.206Z,101424.24
2018-04-18T21:42:53.565Z,101427.96
2018-04-18T21:45:55.070Z,101432.03
2018-04-18T21:48:58.413Z,101433.05
2018-04-18T21:52:02.694Z,101436.09
2018-04-18T21:58:13.287Z,101435.97
2018-04-18T22:08:43.409Z,101449.28
2018-04-18T22:12:09.707Z,101430.35
2018-04-18T22:15:17.323Z,101433.54
2018-04-18T22:18:18.919Z,101437.39
2018-04-18T22:21:20.501Z,101442.07
2018-04-18T22:24:22.077Z,101434.58
2018-04-18T22:27:24.550Z,101444.68
2018-04-18T22:30:38.908Z,101435.08
2018-04-18T22:33:40.490Z,101445.84
2018-04-18T22:36:41.973Z,101434.89
2018-04-18T22:39:43.573Z,101440.72
2018-04-18T22:42:45.109Z,101437.21
2018-04-18T22:45:46.640Z,101442.12
2018-04-18T22:48:48.885Z,101442.36
2018-04-18T22:51:50.377Z,101438.02
2018-04-18T22:54:52.744Z,101441.28
2018-04-18T22:57:54.334Z,101445.87
2018-04-18T23:00:55.888Z,101454.39
2018-04-18T23:04:00.320Z,101441.84
2018-04-18T23:07:01.910Z,101450.16
2018-04-18T23:10:03.518Z,101450.56
2018-04-18T23:16:13.596Z,101442.79
2018-04-18T23:19:15.127Z,101438.98
2018-04-18T23:22:32.982Z,101444.70
2018-04-18T23:25:34.557Z,101442.87
2018-04-18T23:28:36.073Z,101440.80
2018-04-18T23:31:38.393Z,101439.95
2018-04-18T23:34:39.907Z,101441.38
2018-04-18T23:37:41.989Z,101440.42
2018-04-18T23:40:43.476Z,101436.73
2018-04-18T23:43:48.729Z,101433.08
2018-04-18T23:46:50.270Z,101435.56
2018-04-18T23:49:51.860Z,101436.80
2018-04-18T23:52:53.381Z,101431.04
2018-04-18T23:55:55.675Z,101442.22
2018-04-18T23:58:57.124Z,101419.97
